createdAt,value
2022-10-05T00:01:29.944Z,8.30
2022-10-05T00:04:22.214Z,8.10
2022-10-05T00:07:05.390Z,7.47
2022-10-05T00:09:34.829Z,7.70
2022-10-05T00:12:19.700Z,8.18
2022-10-05T00:14:49.403Z,7.70
2022-10-05T00:17:29.933Z,8.43
2022-10-05T00:19:58.117Z,7.77
2022-10-05T00:22:34.708Z,6.90
2022-10-05T00:25:11.285Z,7.38
2022-10-05T00:27:41.455Z,6.47
2022-10-05T00:30:20.211Z,7.07
2022-10-05T00:32:50.280Z,7.57
2022-10-05T00:35:22.378Z,7.45
2022-10-05T00:37:54.146Z,7.80
2022-10-05T00:40:42.588Z,7.93
2022-10-05T00:43:34.960Z,7.68
2022-10-05T00:46:24.567Z,8.03
2022-10-05T00:49:05.853Z,7.93
2022-10-05T00:51:40.823Z,7.55
2022-10-05T00:54:41.936Z,8.50
2022-10-05T00:57:25.613Z,8.85
2022-10-05T00:59:59.466Z,8.87
2022-10-05T01:02:49.939Z,8.40
2022-10-05T01:05:41.701Z,8.32
2022-10-05T01:08:29.157Z,8.27
2022-10-05T01:11:11.423Z,8.70
2022-10-05T01:14:26.948Z,8.60
2022-10-05T01:17:26.821Z,10.00
2022-10-05T01:20:15.326Z,9.90
2022-10-05T01:23:02.765Z,10.07
2022-10-05T01:25:51.562Z,9.88
2022-10-05T01:28:29.276Z,9.87
2022-10-05T01:31:15.031Z,10.60
2022-10-05T01:34:11.741Z,9.82
2022-10-05T01:37:09.881Z,10.50
2022-10-05T01:40:13.868Z,10.05
2022-10-05T01:42:58.789Z,10.50
2022-10-05T01:45:35.217Z,9.93
2022-10-05T01:48:40.891Z,9.77
2022-10-05T01:51:26.566Z,10.75
2022-10-05T01:54:06.898Z,10.73
2022-10-05T01:56:46.745Z,10.43
2022-10-05T01:59:50.057Z,11.10
2022-10-05T02:02:20.907Z,10.50
2022-10-05T02:05:02.037Z,11.52
2022-10-05T02:07:41.732Z,11.32
2022-10-05T02:10:19.112Z,11.60
2022-10-05T02:12:49.543Z,10.88
2022-10-05T02:15:51.877Z,10.75
2022-10-05T02:18:23.672Z,10.40
2022-10-05T02:20:57.608Z,9.85
2022-10-05T02:23:34.505Z,10.60
2022-10-05T02:26:03.492Z,9.80
2022-10-05T02:28:53.896Z,9.98
2022-10-05T02:31:43.251Z,9.65
2022-10-05T02:34:43.722Z,11.10
2022-10-05T02:37:33.352Z,9.50
2022-10-05T02:40:05.022Z,11.52
2022-10-05T02:43:50.670Z,9.98
2022-10-05T02:47:07.185Z,10.23
2022-10-05T02:49:43.998Z,10.07
2022-10-05T02:52:42.781Z,10.73
2022-10-05T02:55:26.219Z,10.13
2022-10-05T02:58:00.331Z,10.05
2022-10-05T03:00:35.106Z,10.38
2022-10-05T03:03:25.476Z,10.60
2022-10-05T03:06:05.264Z,10.03
2022-10-05T03:08:45.021Z,9.95
2022-10-05T03:11:33.893Z,10.00
2022-10-05T03:14:28.704Z,9.95
2022-10-05T03:17:09.826Z,10.85
2022-10-05T03:20:02.701Z,9.70
2022-10-05T03:22:37.244Z,9.20
2022-10-05T03:25:37.214Z,9.75
2022-10-05T03:28:16.297Z,9.13
2022-10-05T03:31:05.838Z,9.48
2022-10-05T03:33:57.544Z,10.00
2022-10-05T03:36:38.925Z,9.45
2022-10-05T03:39:31.640Z,9.32
2022-10-05T03:42:28.746Z,8.73
2022-10-05T03:45:09.357Z,8.82
2022-10-05T03:48:01.695Z,8.77
2022-10-05T03:50:47.182Z,8.73
2022-10-05T03:53:25.675Z,7.93
2022-10-05T03:56:36.460Z,7.85
2022-10-05T03:59:15.860Z,7.10
2022-10-05T04:02:05.939Z,6.43
2022-10-05T04:05:02.432Z,6.88
2022-10-05T04:07:51.345Z,7.20
2022-10-05T04:10:26.317Z,7.93
2022-10-05T04:13:14.160Z,7.05
2022-10-05T04:15:54.231Z,7.50
2022-10-05T04:18:31.496Z,6.85
2022-10-05T04:21:26.754Z,6.47
2022-10-05T04:24:05.284Z,6.93
2022-10-05T04:26:44.347Z,6.28
2022-10-05T04:29:38.088Z,6.23
2022-10-05T04:32:24.895Z,6.00
2022-10-05T04:35:26.585Z,5.35
2022-10-05T04:38:29.424Z,6.28
2022-10-05T04:41:43.801Z,6.05
2022-10-05T04:44:45.542Z,5.30
2022-10-05T04:47:53.576Z,5.72
2022-10-05T04:51:05.365Z,5.25
2022-10-05T04:53:43.672Z,4.20
2022-10-05T04:56:27.709Z,3.58
2022-10-05T04:59:21.209Z,3.23
2022-10-05T05:05:26.447Z,2.22
2022-10-05T05:08:07.919Z,3.30
2022-10-05T05:11:00.979Z,2.90
2022-10-05T05:13:50.479Z,3.57
2022-10-05T05:16:38.188Z,4.53
2022-10-05T05:19:07.170Z,2.83
2022-10-05T05:21:49.690Z,2.92
2022-10-05T05:24:44.370Z,3.70
2022-10-05T05:27:14.914Z,3.10
2022-10-05T05:30:03.838Z,3.63
2022-10-05T05:33:00.240Z,3.65
2022-10-05T05:35:39.157Z,4.00
2022-10-05T05:38:15.859Z,4.22
2022-10-05T05:41:04.577Z,4.87
2022-10-05T05:43:50.979Z,4.28
2022-10-05T05:46:58.313Z,4.47
2022-10-05T05:49:32.285Z,3.97
2022-10-05T05:52:13.494Z,4.22
2022-10-05T05:55:13.475Z,4.00
2022-10-05T05:58:07.450Z,3.65
2022-10-05T06:01:05.241Z,4.20
2022-10-05T06:03:51.490Z,4.10
2022-10-05T06:06:24.535Z,3.67
2022-10-05T06:08:57.772Z,3.93
2022-10-05T06:12:06.248Z,3.45
2022-10-05T06:14:49.756Z,3.22
2022-10-05T06:17:37.296Z,3.72
2022-10-05T06:20:13.983Z,3.65
2022-10-05T06:22:46.292Z,3.20
2022-10-05T06:25:33.910Z,3.90
2022-10-05T06:28:15.070Z,3.65
2022-10-05T06:31:18.934Z,3.50
2022-10-05T06:33:52.656Z,3.65
2022-10-05T06:36:56.036Z,3.97
2022-10-05T06:39:46.382Z,3.88
2022-10-05T06:42:38.042Z,3.90
2022-10-05T06:45:33.427Z,4.07
2022-10-05T06:48:10.804Z,4.13
2022-10-05T06:51:51.777Z,4.30
2022-10-05T06:54:59.456Z,4.68
2022-10-05T06:57:45.948Z,4.38
2022-10-05T07:00:29.594Z,4.90
2022-10-05T07:03:07.220Z,4.43
2022-10-05T07:05:45.253Z,4.60
2022-10-05T07:08:15.902Z,4.20
2022-10-05T07:11:14.804Z,4.00
2022-10-05T07:14:07.662Z,4.78
2022-10-05T07:17:04.349Z,4.15
2022-10-05T07:20:10.244Z,3.93
2022-10-05T07:22:43.847Z,3.85
2022-10-05T07:25:35.719Z,4.05
2022-10-05T07:28:03.050Z,3.72
2022-10-05T07:30:38.321Z,4.10
2022-10-05T07:33:09.424Z,3.60
2022-10-05T07:36:36.652Z,3.95
2022-10-05T07:39:42.099Z,4.18
2022-10-05T07:42:52.099Z,4.43
2022-10-05T07:45:46.108Z,4.55
2022-10-05T07:48:22.528Z,4.33
2022-10-05T07:51:02.635Z,4.00
2022-10-05T07:54:06.965Z,4.38
2022-10-05T07:56:41.096Z,4.63
2022-10-05T07:59:19.516Z,4.43
2022-10-05T08:01:52.281Z,4.03
2022-10-05T08:04:39.376Z,4.22
2022-10-05T08:07:15.616Z,4.93
2022-10-05T08:10:03.223Z,4.57
2022-10-05T08:12:37.413Z,4.50
2022-10-05T08:15:07.793Z,4.87
2022-10-05T08:18:02.858Z,4.65
2022-10-05T08:20:47.418Z,4.10
2022-10-05T08:23:20.263Z,4.30
2022-10-05T08:26:05.946Z,4.28
2022-10-05T08:28:52.368Z,4.40
2022-10-05T08:31:42.177Z,4.43
2022-10-05T08:34:42.780Z,4.32
2022-10-05T08:37:27.495Z,4.85
2022-10-05T08:40:34.013Z,4.30
2022-10-05T08:43:34.449Z,3.40
2022-10-05T08:46:27.109Z,3.45
2022-10-05T08:49:26.230Z,4.00
2022-10-05T08:51:58.889Z,4.35
2022-10-05T08:54:35.449Z,4.25
2022-10-05T08:57:22.786Z,4.27
2022-10-05T09:00:10.970Z,3.28
2022-10-05T09:03:22.892Z,3.67
2022-10-05T09:06:25.075Z,2.70
2022-10-05T09:08:55.466Z,2.97
2022-10-05T09:11:31.885Z,3.33
2022-10-05T09:14:13.955Z,2.42
2022-10-05T09:17:02.016Z,3.45
2022-10-05T09:19:50.140Z,3.60
2022-10-05T09:22:44.291Z,3.50
2022-10-05T09:25:31.052Z,3.70
2022-10-05T09:28:22.514Z,4.15
2022-10-05T09:31:23.845Z,3.35
2022-10-05T09:34:16.874Z,4.60
2022-10-05T09:37:15.709Z,3.72
2022-10-05T09:40:03.515Z,4.60
2022-10-05T09:42:45.551Z,4.90
2022-10-05T09:45:39.558Z,4.53
2022-10-05T09:48:37.451Z,4.20
2022-10-05T09:51:12.233Z,3.40
2022-10-05T09:54:07.102Z,3.47
2022-10-05T09:56:40.032Z,3.08
2022-10-05T09:59:13.088Z,3.53
2022-10-05T10:01:58.173Z,2.92
2022-10-05T10:04:48.305Z,3.08
2022-10-05T10:07:41.270Z,2.73
2022-10-05T10:10:36.447Z,2.88
2022-10-05T10:13:53.764Z,2.38
2022-10-05T10:16:29.929Z,3.30
2022-10-05T10:19:38.656Z,3.85
2022-10-05T10:22:26.728Z,3.07
2022-10-05T10:25:27.398Z,2.72
2022-10-05T10:28:13.610Z,2.70
2022-10-05T10:30:43.425Z,3.42
2022-10-05T10:33:28.338Z,3.45
2022-10-05T10:36:17.486Z,3.60
2022-10-05T10:39:10.319Z,2.97
2022-10-05T10:42:05.234Z,3.60
2022-10-05T10:45:03.327Z,4.15
2022-10-05T10:48:10.969Z,4.10
2022-10-05T10:50:59.837Z,4.20
2022-10-05T10:53:58.292Z,4.28
2022-10-05T10:57:03.638Z,4.40
2022-10-05T11:00:00.923Z,4.10
2022-10-05T11:02:37.372Z,4.15
2022-10-05T11:05:23.531Z,4.13
2022-10-05T11:08:15.251Z,4.68
2022-10-05T11:11:27.255Z,4.75
2022-10-05T11:14:16.511Z,4.20
2022-10-05T11:16:55.990Z,3.78
2022-10-05T11:19:46.339Z,4.23
2022-10-05T11:22:46.082Z,3.70
2022-10-05T11:25:22.153Z,3.03
2022-10-05T11:28:14.526Z,3.40
2022-10-05T11:31:15.239Z,3.47
2022-10-05T11:34:00.189Z,3.63
2022-10-05T11:36:37.781Z,3.67
2022-10-05T11:39:12.025Z,3.22
2022-10-05T11:42:10.274Z,2.97
2022-10-05T11:45:19.204Z,3.15
2022-10-05T11:48:23.529Z,4.63
2022-10-05T11:51:34.276Z,3.08
2022-10-05T11:54:18.349Z,3.42
2022-10-05T11:56:53.805Z,2.90
2022-10-05T11:59:30.048Z,2.35
2022-10-05T12:02:18.343Z,3.50
2022-10-05T12:04:59.725Z,2.85
2022-10-05T12:07:44.852Z,3.60
2022-10-05T12:10:29.094Z,4.00
2022-10-05T12:12:59.451Z,3.08
2022-10-05T12:15:50.240Z,3.73
2022-10-05T12:18:33.030Z,3.83
2022-10-05T12:21:24.756Z,3.25
2022-10-05T12:24:10.467Z,3.25
2022-10-05T12:26:47.245Z,3.28
2022-10-05T12:29:20.009Z,3.30
2022-10-05T12:31:58.652Z,2.80
2022-10-05T12:35:01.477Z,3.55
2022-10-05T12:37:58.189Z,3.60
2022-10-05T12:40:42.979Z,3.00
2022-10-05T12:43:37.727Z,2.80
2022-10-05T12:46:07.622Z,2.45
2022-10-05T12:49:01.861Z,3.80
2022-10-05T12:51:42.545Z,3.20
2022-10-05T12:54:34.790Z,3.10
2022-10-05T12:57:20.089Z,3.40
2022-10-05T12:59:56.969Z,3.30
2022-10-05T13:02:30.674Z,2.97
2022-10-05T13:05:11.921Z,2.72
2022-10-05T13:08:13.822Z,2.72
2022-10-05T13:10:46.656Z,3.03
2022-10-05T13:13:21.238Z,2.30
2022-10-05T13:16:07.931Z,2.22
2022-10-05T13:19:00.103Z,2.55
2022-10-05T13:21:50.287Z,3.05
2022-10-05T13:24:43.032Z,3.50
2022-10-05T13:27:22.443Z,2.85
2022-10-05T13:30:16.096Z,3.10
2022-10-05T13:32:50.730Z,3.60
2022-10-05T13:35:24.040Z,2.88
2022-10-05T13:38:25.076Z,2.60
2022-10-05T13:41:07.074Z,2.72
2022-10-05T13:43:55.366Z,2.47
2022-10-05T13:46:35.102Z,2.50
2022-10-05T13:49:35.057Z,2.65
2022-10-05T13:52:11.104Z,3.07
2022-10-05T13:55:13.966Z,3.22
2022-10-05T13:58:05.959Z,4.25
2022-10-05T14:00:48.172Z,2.95
2022-10-05T14:03:32.578Z,2.40
2022-10-05T14:06:02.020Z,3.57
2022-10-05T14:08:37.159Z,3.50
2022-10-05T14:11:30.584Z,3.30
2022-10-05T14:14:10.174Z,3.08
2022-10-05T14:16:52.603Z,2.88
2022-10-05T14:19:26.901Z,3.40
2022-10-05T14:22:00.450Z,3.40
2022-10-05T14:24:45.666Z,3.00
2022-10-05T14:27:31.454Z,3.35
2022-10-05T14:30:10.583Z,3.22
2022-10-05T14:32:59.627Z,3.47
2022-10-05T14:35:30.759Z,2.63
2022-10-05T14:38:07.897Z,2.78
2022-10-05T14:40:37.311Z,2.92
2022-10-05T14:43:24.754Z,2.85
2022-10-05T14:45:57.897Z,3.17
2022-10-05T14:48:29.347Z,3.30
2022-10-05T14:51:04.093Z,3.08
2022-10-05T14:53:44.261Z,3.20
2022-10-05T14:56:41.475Z,3.20
2022-10-05T14:59:29.965Z,3.00
2022-10-05T15:02:24.985Z,2.90
2022-10-05T15:05:09.202Z,2.20
2022-10-05T15:07:44.028Z,3.40
2022-10-05T15:10:26.866Z,2.60
2022-10-05T15:13:19.960Z,2.63
2022-10-05T15:16:14.623Z,2.75
2022-10-05T15:19:10.956Z,2.85
2022-10-05T15:22:15.271Z,3.58
2022-10-05T15:25:15.764Z,3.53
2022-10-05T15:28:17.218Z,3.70
2022-10-05T15:31:05.702Z,3.03
2022-10-05T15:33:51.051Z,3.53
2022-10-05T15:36:38.904Z,3.40
2022-10-05T15:39:27.344Z,3.30
2022-10-05T15:41:59.727Z,3.47
2022-10-05T15:45:15.632Z,2.25
2022-10-05T15:48:10.633Z,3.20
2022-10-05T15:51:23.639Z,3.63
2022-10-05T15:54:33.801Z,2.70
2022-10-05T15:57:12.832Z,2.70
2022-10-05T15:59:57.887Z,2.50
2022-10-05T16:02:39.346Z,2.58
2022-10-05T16:05:43.885Z,2.55
2022-10-05T16:08:54.318Z,3.25
2022-10-05T16:11:46.289Z,2.33
2022-10-05T16:14:19.591Z,2.75
2022-10-05T16:17:24.426Z,2.95
2022-10-05T16:20:12.682Z,2.75
2022-10-05T16:22:59.833Z,2.75
2022-10-05T16:25:49.902Z,2.87
2022-10-05T16:28:56.712Z,3.50
2022-10-05T16:31:57.543Z,3.10
2022-10-05T16:34:45.555Z,2.42
2022-10-05T16:37:32.218Z,2.95
2022-10-05T16:40:01.192Z,2.90
2022-10-05T16:42:47.680Z,3.17
2022-10-05T16:45:29.747Z,2.80
2022-10-05T16:48:11.958Z,3.05
2022-10-05T16:51:03.469Z,2.58
2022-10-05T16:54:02.283Z,3.03
2022-10-05T16:56:40.639Z,2.63
2022-10-05T16:59:26.771Z,2.70
2022-10-05T17:02:26.034Z,3.05
2022-10-05T17:05:18.416Z,3.53
2022-10-05T17:08:08.417Z,2.50
2022-10-05T17:10:54.150Z,3.13
2022-10-05T17:13:41.995Z,3.33
2022-10-05T17:16:45.890Z,4.15
2022-10-05T17:19:12.797Z,3.33
2022-10-05T17:21:45.429Z,3.63
2022-10-05T17:24:12.358Z,3.25
2022-10-05T17:26:56.759Z,3.40
2022-10-05T17:29:29.462Z,3.28
2022-10-05T17:32:00.709Z,3.60
2022-10-05T17:34:34.795Z,3.50
2022-10-05T17:37:18.867Z,3.58
2022-10-05T17:39:49.704Z,2.80
2022-10-05T17:42:36.836Z,3.58
2022-10-05T17:45:12.929Z,3.10
2022-10-05T17:48:12.891Z,3.53
2022-10-05T17:51:00.314Z,3.50
2022-10-05T17:54:04.206Z,3.05
2022-10-05T17:56:47.865Z,3.17
2022-10-05T17:59:46.680Z,2.90
2022-10-05T18:02:19.840Z,3.63
2022-10-05T18:05:01.648Z,2.60
2022-10-05T18:07:28.820Z,2.85
2022-10-05T18:09:58.896Z,3.33
2022-10-05T18:12:39.682Z,3.28
2022-10-05T18:15:09.557Z,3.10
2022-10-05T18:17:46.930Z,3.67
2022-10-05T18:20:26.970Z,3.80
2022-10-05T18:23:05.804Z,3.60
2022-10-05T18:25:51.701Z,3.35
2022-10-05T18:28:40.884Z,3.30
2022-10-05T18:31:23.554Z,2.50
2022-10-05T18:34:13.216Z,3.33
2022-10-05T18:36:57.451Z,2.30
2022-10-05T18:39:48.162Z,3.42
2022-10-05T18:42:25.260Z,2.77
2022-10-05T18:45:14.170Z,3.00
2022-10-05T18:47:53.553Z,3.20
2022-10-05T18:50:29.809Z,3.95
2022-10-05T18:53:30.178Z,2.92
2022-10-05T18:56:28.251Z,3.30
2022-10-05T18:58:57.935Z,2.42
2022-10-05T19:01:29.348Z,2.63
2022-10-05T19:04:17.926Z,4.00
2022-10-05T19:07:04.994Z,3.83
2022-10-05T19:09:49.825Z,3.03
2022-10-05T19:12:52.714Z,3.40
2022-10-05T19:15:25.172Z,2.97
2022-10-05T19:18:25.938Z,3.03
2022-10-05T19:21:22.270Z,3.05
2022-10-05T19:24:27.895Z,2.57
2022-10-05T19:27:03.890Z,2.60
2022-10-05T19:29:38.397Z,3.45
2022-10-05T19:32:20.239Z,3.30
2022-10-05T19:35:00.577Z,3.00
2022-10-05T19:37:50.178Z,3.60
2022-10-05T19:40:43.385Z,2.90
2022-10-05T19:43:47.513Z,2.40
2022-10-05T19:46:32.827Z,2.35
2022-10-05T19:49:00.347Z,1.52
2022-10-05T19:51:30.745Z,1.50
2022-10-05T19:54:16.773Z,1.30
2022-10-05T19:56:55.179Z,1.88
2022-10-05T19:59:27.132Z,2.05
2022-10-05T20:01:58.415Z,1.33
2022-10-05T20:04:37.921Z,1.23
2022-10-05T20:07:05.262Z,1.30
2022-10-05T20:09:51.369Z,1.80
2022-10-05T20:12:18.613Z,1.55
2022-10-05T20:15:04.342Z,1.40
2022-10-05T20:17:49.874Z,1.13
2022-10-05T20:20:36.126Z,1.60
2022-10-05T20:23:18.789Z,2.00
2022-10-05T20:26:05.641Z,1.35
2022-10-05T20:28:33.677Z,1.92
2022-10-05T20:31:00.711Z,1.73
2022-10-05T20:33:28.751Z,1.60
2022-10-05T20:35:55.982Z,1.50
2022-10-05T20:38:23.162Z,3.00
2022-10-05T20:40:50.206Z,2.67
2022-10-05T20:43:17.406Z,1.70
2022-10-05T20:45:44.383Z,1.67
2022-10-05T20:48:12.514Z,2.42
2022-10-05T20:50:39.604Z,2.10
2022-10-05T20:53:11.563Z,2.33
2022-10-05T20:55:38.878Z,2.50
2022-10-05T20:58:07.091Z,2.30
2022-10-05T21:00:59.252Z,2.25
2022-10-05T21:03:26.157Z,2.55
2022-10-05T21:05:53.401Z,2.13
2022-10-05T21:08:20.200Z,2.20
2022-10-05T21:10:46.925Z,2.05
2022-10-05T21:13:13.755Z,1.65
2022-10-05T21:15:40.746Z,1.73
2022-10-05T21:18:07.603Z,1.95
2022-10-05T21:20:34.558Z,1.17
2022-10-05T21:23:01.379Z,1.60
2022-10-05T21:25:28.185Z,1.98
2022-10-05T21:27:55.041Z,2.10
2022-10-05T21:30:22.027Z,2.05
2022-10-05T21:32:48.816Z,1.43
2022-10-05T21:38:14.970Z,1.95
2022-10-05T21:40:46.552Z,2.10
2022-10-05T21:43:16.705Z,1.95
2022-10-05T21:45:51.385Z,2.10
2022-10-05T21:48:21.049Z,2.30
2022-10-05T21:50:48.635Z,1.60
2022-10-05T21:53:21.185Z,1.52
2022-10-05T21:55:51.042Z,1.80
2022-10-05T21:58:20.125Z,1.87
2022-10-05T22:00:47.574Z,2.38
2022-10-05T22:03:14.837Z,2.10
2022-10-05T22:05:42.369Z,2.30
2022-10-05T22:08:22.576Z,2.40
2022-10-05T22:10:50.311Z,2.50
2022-10-05T22:13:22.912Z,1.67
2022-10-05T22:15:50.715Z,2.00
2022-10-05T22:18:19.068Z,2.40
2022-10-05T22:20:47.900Z,1.92
2022-10-05T22:23:17.835Z,2.30
2022-10-05T22:25:45.700Z,1.80
2022-10-05T22:28:16.200Z,2.20
2022-10-05T22:30:45.352Z,2.80
2022-10-05T22:33:15.681Z,2.65
2022-10-05T22:35:44.057Z,2.33
2022-10-05T22:38:13.355Z,1.55
2022-10-05T22:40:45.577Z,2.28
2022-10-05T22:43:13.153Z,2.28
2022-10-05T22:45:40.550Z,2.38
2022-10-05T22:48:07.735Z,2.20
2022-10-05T22:50:35.236Z,2.85
2022-10-05T22:53:02.469Z,2.97
2022-10-05T22:55:29.817Z,2.85
2022-10-05T22:57:57.075Z,2.60
2022-10-05T23:00:35.213Z,2.73
2022-10-05T23:03:14.193Z,2.90
2022-10-05T23:05:42.273Z,2.45
2022-10-05T23:08:09.711Z,3.15
2022-10-05T23:10:37.025Z,2.80
2022-10-05T23:13:05.348Z,2.87
2022-10-05T23:15:36.014Z,2.90
2022-10-05T23:18:03.244Z,2.15
2022-10-05T23:20:30.385Z,2.72
2022-10-05T23:22:59.895Z,3.63
2022-10-05T23:25:27.246Z,2.97
2022-10-05T23:27:56.818Z,2.83
2022-10-05T23:30:26.827Z,2.72
2022-10-05T23:32:54.247Z,3.10
2022-10-05T23:35:21.586Z,3.03
2022-10-05T23:37:57.328Z,3.00
2022-10-05T23:40:28.361Z,2.53
2022-10-05T23:42:58.996Z,2.97
2022-10-05T23:45:26.361Z,2.78
2022-10-05T23:47:53.496Z,2.60
2022-10-05T23:50:21.644Z,2.67
2022-10-05T23:52:48.832Z,2.00
2022-10-05T23:55:16.703Z,3.22
2022-10-05T23:57:44.044Z,2.55
